Time;durP1;ratioP1;P1;durP2;ratioP2;P2;SDS_P1;SDS_P2;PMS_P1;PMS_P2;Temp;Humidity;BMP_temperature;BMP_pressure;BME280_temperature;BME280_humidity;BME280_pressure;Samples;Min_cycle;Max_cycle;Signal;HPM_P1;HPM_P2
2021/09/09 00:00:27;;;;;;;11.95;9.45;;;;;;;17.66;64.63;98518.03;2617921;39;20543;-66
2021/09/09 00:02:58;;;;;;;11.50;10.20;;;;;;;17.63;64.33;98515.84;2618170;54;20031;-63
2021/09/09 00:05:29;;;;;;;10.60;9.48;;;;;;;17.54;64.96;98520.00;2618020;54;20023;-63
2021/09/09 00:07:59;;;;;;;10.55;9.20;;;;;;;17.51;64.77;98523.16;2621473;39;20410;-65
2021/09/09 00:10:29;;;;;;;12.48;9.93;;;;;;;17.57;64.74;98508.81;2622359;54;20030;-64
2021/09/09 00:12:59;;;;;;;11.32;10.23;;;;;;;17.50;64.73;98517.00;2618525;39;20402;-64
2021/09/09 00:15:34;;;;;;;11.52;10.32;;;;;;;17.41;65.18;98523.81;2618340;54;20122;-64
2021/09/09 00:18:04;;;;;;;;;;;;;;;17.41;64.68;98507.78;2618626;51;20038;-64
2021/09/09 00:20:34;;;;;;;10.43;9.20;;;;;;;17.33;64.94;98519.69;2618703;47;19943;-64
2021/09/09 00:23:04;;;;;;;11.05;9.95;;;;;;;17.37;65.11;98512.00;2618389;47;20030;-64
2021/09/09 00:25:34;;;;;;;13.38;9.88;;;;;;;17.39;65.56;98519.75;2618692;54;20517;-64
2021/09/09 00:28:03;;;;;;;11.05;9.23;;;;;;;17.44;65.32;98507.31;2618974;54;20030;-63
2021/09/09 00:30:37;;;;;;;11.50;10.30;;;;;;;17.41;65.62;98506.97;2619017;54;20943;-63
2021/09/09 00:33:08;;;;;;;10.90;9.57;;;;;;;17.23;66.14;98505.38;2619581;39;20450;-63
2021/09/09 00:35:39;;;;;;;14.70;10.02;;;;;;;17.20;66.16;98506.66;2618682;54;20552;-64
2021/09/09 00:38:09;;;;;;;13.45;9.25;;;;;;;17.18;66.24;98510.59;2618855;54;20034;-65
2021/09/09 00:40:38;;;;;;;12.13;9.95;;;;;;;17.27;65.70;98509.97;2618643;54;20022;-64
2021/09/09 00:43:08;;;;;;;11.27;9.07;;;;;;;17.32;65.60;98499.38;2619179;54;20038;-64
2021/09/09 00:45:41;;;;;;;10.90;9.68;;;;;;;17.16;66.24;98502.03;2618620;54;20038;-64
2021/09/09 00:48:10;;;;;;;10.88;9.52;;;;;;;17.09;66.43;98510.19;2619708;54;20042;-64
2021/09/09 00:50:40;;;;;;;12.15;10.52;;;;;;;17.14;66.65;98496.13;2621908;54;20027;-66
2021/09/09 00:53:10;;;;;;;11.32;10.13;;;;;;;16.97;66.50;98496.09;2621881;54;20034;-63
2021/09/09 00:55:40;;;;;;;11.98;9.93;;;;;;;16.99;66.95;98494.81;2621803;54;20033;-64
2021/09/09 00:58:11;;;;;;;10.63;9.63;;;;;;;16.95;67.08;98496.34;2621729;54;20042;-64
2021/09/09 01:00:43;;;;;;;10.98;9.80;;;;;;;16.90;67.40;98498.13;2620115;47;20038;-64
2021/09/09 01:03:13;;;;;;;12.13;9.07;;;;;;;16.92;67.14;98490.69;2622002;54;20026;-65
2021/09/09 01:05:43;;;;;;;10.88;9.48;;;;;;;16.96;66.75;98494.50;2622221;54;20027;-64
2021/09/09 01:08:13;;;;;;;12.98;10.27;;;;;;;16.94;67.15;98502.75;2621863;54;20031;-63
2021/09/09 01:10:43;;;;;;;10.35;9.07;;;;;;;16.96;67.47;98497.16;2622403;54;20532;-64
2021/09/09 01:13:13;;;;;;;10.27;9.20;;;;;;;16.97;67.58;98499.59;2621556;54;20567;-64
2021/09/09 01:15:46;;;;;;;11.63;9.32;;;;;;;17.04;67.47;98496.78;2621411;54;20030;-63
2021/09/09 01:18:17;;;;;;;11.07;9.77;;;;;;;17.13;67.15;98497.97;2620985;54;20037;-64
2021/09/09 01:20:49;;;;;;;10.75;9.68;;;;;;;17.14;66.45;98506.81;2621878;54;20042;-65
2021/09/09 01:23:21;;;;;;;12.30;9.95;;;;;;;17.01;66.48;98486.56;2622774;39;20448;-67
2021/09/09 01:25:53;;;;;;;10.90;9.80;;;;;;;16.93;67.07;98498.44;2620511;54;20037;-64
2021/09/09 01:28:23;;;;;;;10.65;9.25;;;;;;;16.92;67.02;98498.69;2620384;54;20022;-63
2021/09/09 01:30:53;;;;;;;13.27;10.45;;;;;;;16.88;67.13;98494.88;2621291;54;20038;-65
2021/09/09 01:33:23;;;;;;;11.00;9.80;;;;;;;16.87;68.06;98494.09;2620143;54;20041;-64
2021/09/09 01:35:53;;;;;;;11.63;10.00;;;;;;;16.92;67.53;98491.50;2619354;54;20038;-64
2021/09/09 01:38:24;;;;;;;10.90;9.80;;;;;;;16.86;67.38;98495.13;2619117;47;20030;-67
2021/09/09 01:40:56;;;;;;;11.18;9.98;;;;;;;16.84;67.86;98492.69;2619800;39;20399;-64
2021/09/09 01:43:26;;;;;;;10.77;9.30;;;;;;;16.77;67.72;98494.69;2619045;54;20025;-64
2021/09/09 01:45:56;;;;;;;13.18;10.70;;;;;;;16.76;67.69;98486.94;2618674;54;20022;-64
2021/09/09 01:48:26;;;;;;;11.90;10.27;;;;;;;16.69;68.29;98484.38;2618725;54;20053;-65
2021/09/09 01:50:56;;;;;;;11.07;9.55;;;;;;;16.69;67.84;98481.72;2618856;39;20101;-64
2021/09/09 01:53:26;;;;;;;11.25;9.43;;;;;;;16.63;68.33;98484.53;2618539;54;20060;-64
2021/09/09 01:55:58;;;;;;;11.15;10.05;;;;;;;16.62;68.65;98475.72;2618313;54;20041;-63
2021/09/09 01:58:28;;;;;;;12.18;9.85;;;;;;;16.51;68.45;98473.91;2618885;39;20476;-64
2021/09/09 02:00:58;;;;;;;9.82;8.77;;;;;;;16.53;68.80;98485.16;2618858;54;20026;-65
2021/09/09 02:03:28;;;;;;;10.80;9.57;;;;;;;16.49;68.62;98484.00;2618453;54;20033;-63
2021/09/09 02:05:58;;;;;;;10.73;9.50;;;;;;;16.51;68.49;98481.94;2617569;54;20122;-63
2021/09/09 02:08:27;;;;;;;11.85;9.95;;;;;;;16.52;68.67;98479.00;2618539;54;20113;-63
2021/09/09 02:11:00;;;;;;;13.13;9.63;;;;;;;16.48;68.60;98483.19;2618769;54;20023;-63
2021/09/09 02:13:30;;;;;;;10.88;9.55;;;;;;;16.56;68.86;98480.16;2618703;54;20030;-63
2021/09/09 02:15:59;;;;;;;10.75;9.27;;;;;;;16.68;68.57;98487.31;2618413;54;20027;-63
2021/09/09 02:18:29;;;;;;;13.48;10.70;;;;;;;16.69;68.40;98478.22;2618728;54;20038;-64
2021/09/09 02:20:59;;;;;;;15.13;10.23;;;;;;;16.54;68.44;98481.47;2619058;39;20418;-64
2021/09/09 02:23:29;;;;;;;12.20;10.13;;;;;;;16.47;68.72;98481.59;2618766;54;20034;-63
2021/09/09 02:26:01;;;;;;;12.75;10.30;;;;;;;16.44;68.96;98478.59;2618180;54;20030;-64
2021/09/09 02:28:31;;;;;;;14.32;9.93;;;;;;;16.39;68.67;98478.50;2618634;54;20026;-63
2021/09/09 02:31:01;;;;;;;11.98;10.02;;;;;;;16.28;69.14;98480.94;2618600;54;20542;-64
2021/09/09 02:33:30;;;;;;;12.18;9.50;;;;;;;16.19;69.38;98479.72;2618377;54;20625;-64
2021/09/09 02:36:00;;;;;;;12.40;10.25;;;;;;;16.22;69.54;98476.56;2618305;54;20027;-64
2021/09/09 02:38:30;;;;;;;13.82;10.25;;;;;;;16.28;69.28;98480.16;2618259;54;20030;-64
2021/09/09 02:41:05;;;;;;;12.00;9.93;;;;;;;16.25;69.76;98478.78;2618695;54;20026;-64
2021/09/09 02:43:35;;;;;;;9.85;8.80;;;;;;;16.27;69.70;98478.53;2618685;54;20546;-63
2021/09/09 02:46:05;;;;;;;12.10;10.85;;;;;;;16.25;69.42;98476.13;2619204;54;20872;-65
2021/09/09 02:48:34;;;;;;;11.90;10.38;;;;;;;16.20;69.74;98476.00;2620789;54;20105;-64
2021/09/09 02:51:04;;;;;;;13.38;9.55;;;;;;;16.15;69.77;98475.91;2621199;39;20570;-64
2021/09/09 02:53:34;;;;;;;19.92;11.30;;;;;;;16.13;70.04;98472.66;2620743;54;20030;-64
2021/09/09 02:56:06;;;;;;;16.65;11.52;;;;;;;16.13;70.07;98475.34;2617605;54;20061;-64
2021/09/09 02:58:36;;;;;;;13.40;10.55;;;;;;;16.07;70.17;98462.94;2618577;54;20027;-63
2021/09/09 03:01:06;;;;;;;12.65;10.55;;;;;;;16.03;70.47;98469.78;2620488;54;20046;-64
2021/09/09 03:03:36;;;;;;;13.82;10.23;;;;;;;16.03;70.25;98461.78;2621897;54;20031;-64
2021/09/09 03:06:06;;;;;;;12.38;9.98;;;;;;;16.04;69.89;98460.72;2621923;54;20031;-65
2021/09/09 03:08:35;;;;;;;10.63;9.50;;;;;;;16.00;70.26;98464.91;2620524;39;20727;-64
2021/09/09 03:11:08;;;;;;;11.73;10.45;;;;;;;16.03;69.99;98464.44;2618170;54;20027;-64
2021/09/09 03:13:38;;;;;;;13.02;11.05;;;;;;;15.99;70.19;98465.97;2617840;54;20030;-64
2021/09/09 03:16:07;;;;;;;12.52;10.48;;;;;;;15.92;70.66;98462.63;2617199;47;20563;-64
2021/09/09 03:18:37;;;;;;;10.98;9.65;;;;;;;15.97;70.06;98458.22;2617701;47;20034;-65
2021/09/09 03:21:07;;;;;;;17.08;11.10;;;;;;;15.91;70.17;98461.81;2618869;39;20468;-64
2021/09/09 03:23:37;;;;;;;11.52;10.40;;;;;;;15.88;70.15;98461.47;2618497;54;20030;-64
2021/09/09 03:26:09;;;;;;;12.18;10.00;;;;;;;15.82;70.71;98465.88;2618109;54;20062;-64
2021/09/09 03:28:39;;;;;;;13.95;10.50;;;;;;;15.80;70.68;98463.47;2618511;54;20121;-64
2021/09/09 03:31:09;;;;;;;12.38;10.13;;;;;;;15.82;70.34;98458.69;2618266;54;20542;-64
2021/09/09 03:33:39;;;;;;;12.35;10.60;;;;;;;15.72;70.77;98458.50;2618046;54;20038;-64
2021/09/09 03:36:08;;;;;;;10.57;9.48;;;;;;;15.71;70.90;98462.19;2617678;54;20038;-64
2021/09/09 03:38:38;;;;;;;15.02;10.35;;;;;;;15.69;70.68;98468.81;2617628;47;20026;-65
2021/09/09 03:41:10;;;;;;;14.07;10.80;;;;;;;15.66;71.16;98470.09;2617920;54;20050;-64
2021/09/09 03:43:40;;;;;;;12.10;10.40;;;;;;;15.59;71.09;98458.69;2618095;54;20025;-64
2021/09/09 03:46:10;;;;;;;13.02;10.65;;;;;;;15.56;71.35;98469.84;2617747;54;20022;-65
2021/09/09 03:48:39;;;;;;;13.15;10.77;;;;;;;15.55;71.66;98470.88;2618063;54;20060;-64
2021/09/09 03:51:09;;;;;;;10.88;9.70;;;;;;;15.62;71.25;98471.56;2618338;54;20030;-64
2021/09/09 03:53:39;;;;;;;12.05;10.85;;;;;;;15.70;70.96;98465.91;2618799;54;20041;-64
2021/09/09 03:56:11;;;;;;;12.65;10.18;;;;;;;15.65;71.07;98473.78;2618692;54;20025;-64
2021/09/09 03:58:41;;;;;;;12.30;10.15;;;;;;;15.52;71.03;98472.16;2618873;54;20026;-64
2021/09/09 04:01:10;;;;;;;10.88;9.77;;;;;;;15.49;71.01;98477.13;2619109;54;20027;-64
2021/09/09 04:03:40;;;;;;;12.50;10.27;;;;;;;15.54;71.07;98475.38;2618716;54;20018;-64
2021/09/09 04:06:10;;;;;;;12.95;10.55;;;;;;;15.53;70.74;98476.44;2618714;54;20076;-64
2021/09/09 04:08:40;;;;;;;11.68;10.48;;;;;;;15.42;70.81;98469.25;2618919;54;20026;-64
2021/09/09 04:11:12;;;;;;;11.35;10.00;;;;;;;15.40;71.83;98465.22;2619491;54;20030;-65
2021/09/09 04:13:42;;;;;;;12.63;9.98;;;;;;;15.43;71.66;98470.06;2623643;54;20038;-63
2021/09/09 04:16:11;;;;;;;13.02;11.05;;;;;;;15.43;71.42;98476.22;2623592;54;20027;-64
2021/09/09 04:18:41;;;;;;;11.00;9.85;;;;;;;15.53;71.34;98475.63;2624123;54;20033;-64
2021/09/09 04:21:11;;;;;;;12.82;11.25;;;;;;;15.56;70.76;98472.50;2628023;39;20093;-64
2021/09/09 04:23:40;;;;;;;11.35;9.93;;;;;;;15.57;71.25;98474.13;2625028;39;20477;-64
2021/09/09 04:26:13;;;;;;;12.70;11.30;;;;;;;15.49;70.59;98469.13;2624030;54;20042;-64
2021/09/09 04:28:42;;;;;;;13.48;10.65;;;;;;;15.38;70.97;98470.75;2624342;54;20030;-65
2021/09/09 04:31:12;;;;;;;12.73;11.07;;;;;;;15.42;71.01;98479.91;2624103;54;20026;-65
2021/09/09 04:33:42;;;;;;;13.45;10.32;;;;;;;15.40;70.73;98475.88;2624335;54;20023;-64
2021/09/09 04:36:11;;;;;;;13.20;10.82;;;;;;;15.38;71.03;98473.41;2623657;54;20035;-65
2021/09/09 04:38:41;;;;;;;13.25;10.98;;;;;;;15.30;70.92;98482.56;2623760;54;20031;-64
2021/09/09 04:41:14;;;;;;;11.15;10.02;;;;;;;15.26;71.08;98472.59;2623560;54;20050;-63
2021/09/09 04:43:44;;;;;;;12.70;9.90;;;;;;;15.25;71.24;98481.63;2623122;54;20018;-66
2021/09/09 04:46:14;;;;;;;20.38;17.98;;;;;;;15.28;71.14;98470.53;2620587;54;20022;-65
2021/09/09 04:48:44;;;;;;;15.35;13.20;;;;;;;15.27;71.16;98472.38;2619608;39;20465;-63
2021/09/09 04:51:14;;;;;;;16.15;10.93;;;;;;;15.29;71.49;98467.63;2619557;54;20045;-63
2021/09/09 04:53:43;;;;;;;12.57;11.32;;;;;;;15.33;71.36;98473.31;2618346;54;20034;-63
2021/09/09 04:56:16;;;;;;;13.48;11.55;;;;;;;15.32;70.92;98466.38;2618322;54;20046;-63
2021/09/09 04:58:46;;;;;;;14.38;12.88;;;;;;;15.26;71.31;98472.59;2618858;54;20031;-63
2021/09/09 05:01:16;;;;;;;13.68;11.15;;;;;;;15.16;71.59;98473.19;2618645;54;20039;-64
2021/09/09 05:03:46;;;;;;;13.48;11.63;;;;;;;15.07;71.59;98474.56;2618793;54;20129;-63
2021/09/09 05:06:16;;;;;;;12.45;11.10;;;;;;;15.03;72.24;98484.06;2618546;54;20089;-64
2021/09/09 05:08:46;;;;;;;13.52;10.75;;;;;;;15.04;72.08;98483.81;2618811;54;20027;-64
2021/09/09 05:11:18;;;;;;;13.65;10.85;;;;;;;15.00;72.07;98479.19;2618829;54;20134;-63
2021/09/09 05:13:48;;;;;;;12.90;10.82;;;;;;;15.05;72.36;98476.63;2619166;54;20030;-63
2021/09/09 05:16:18;;;;;;;15.60;12.20;;;;;;;15.05;71.91;98476.63;2619012;54;20109;-63
2021/09/09 05:18:47;;;;;;;15.38;11.70;;;;;;;15.02;71.94;98479.75;2618416;54;20041;-64
2021/09/09 05:21:17;;;;;;;15.15;11.90;;;;;;;14.98;72.03;98482.06;2619150;54;20034;-69
2021/09/09 05:23:47;;;;;;;13.63;12.18;;;;;;;14.98;72.60;98466.09;2623134;54;20072;-69
2021/09/09 05:26:20;;;;;;;13.57;11.25;;;;;;;14.98;72.70;98481.25;2623704;54;20030;-69
2021/09/09 05:28:50;;;;;;;13.68;11.18;;;;;;;15.05;72.42;98476.63;2623773;54;20023;-69
2021/09/09 05:31:20;;;;;;;13.35;11.02;;;;;;;15.12;72.37;98480.00;2622453;39;20437;-67
2021/09/09 05:33:50;;;;;;;12.10;10.90;;;;;;;15.24;71.94;98482.69;2622424;54;20046;-69
2021/09/09 05:36:20;;;;;;;13.40;10.90;;;;;;;15.36;71.60;98480.84;2622272;54;20022;-68
2021/09/09 05:38:51;;;;;;;12.38;11.10;;;;;;;15.42;71.35;98479.91;2623160;54;20037;-68
2021/09/09 05:41:24;;;;;;;12.40;11.20;;;;;;;15.36;70.76;98473.66;2622941;54;20033;-68
2021/09/09 05:44:01;;;;;;;12.55;9.63;;;;;;;15.34;71.06;98488.22;2622862;54;20030;-69
2021/09/09 05:46:31;;;;;;;11.20;9.95;;;;;;;15.41;71.48;98493.47;2622109;54;20045;-69
2021/09/09 05:49:01;;;;;;;11.20;9.57;;;;;;;15.52;70.97;98488.13;2622729;47;20569;-68
2021/09/09 05:51:30;;;;;;;12.27;10.30;;;;;;;15.58;70.69;98492.53;2620719;47;20086;-68
2021/09/09 05:54:02;;;;;;;14.75;10.27;;;;;;;15.49;70.86;98499.25;2622270;54;20588;-68
2021/09/09 05:56:34;;;;;;;11.57;10.07;;;;;;;15.58;71.04;98494.38;2621999;54;20030;-68
2021/09/09 05:59:04;;;;;;;12.18;10.88;;;;;;;15.73;70.83;98500.09;2621193;54;20026;-69
2021/09/09 06:01:34;;;;;;;15.10;11.75;;;;;;;15.80;70.22;98492.78;2621657;47;20106;-68
2021/09/09 06:04:04;;;;;;;11.38;10.05;;;;;;;15.79;70.39;98491.16;2622760;54;20072;-68
2021/09/09 06:06:34;;;;;;;14.43;12.65;;;;;;;15.87;69.93;98500.66;2622130;54;20037;-68
2021/09/09 06:09:04;;;;;;;16.38;11.55;;;;;;;15.86;69.94;98488.38;2622504;39;20426;-68
2021/09/09 06:11:36;;;;;;;21.27;13.43;;;;;;;15.87;70.11;98492.66;2622004;47;20041;-69
2021/09/09 06:14:06;;;;;;;12.52;10.40;;;;;;;15.97;70.12;98484.06;2623021;54;20045;-68
2021/09/09 06:16:36;;;;;;;16.50;11.57;;;;;;;16.06;69.73;98491.47;2622338;54;20038;-68
2021/09/09 06:19:06;;;;;;;17.67;13.57;;;;;;;16.18;70.15;98490.63;2621954;46;20051;-68
2021/09/09 06:21:36;;;;;;;18.50;11.95;;;;;;;16.31;69.39;98491.16;2622204;54;20038;-72
2021/09/09 06:24:07;;;;;;;16.60;11.27;;;;;;;16.35;68.73;98488.81;2622582;54;20037;-68
2021/09/09 06:26:39;;;;;;;14.52;12.07;;;;;;;16.42;68.58;98486.84;2622349;54;20026;-68
2021/09/09 06:29:09;;;;;;;12.77;10.13;;;;;;;16.50;68.82;98493.66;2622800;54;20034;-68
2021/09/09 06:31:39;;;;;;;14.98;10.85;;;;;;;16.58;68.55;98494.06;2623385;47;20042;-68
2021/09/09 06:34:08;;;;;;;13.13;10.70;;;;;;;16.68;68.77;98495.31;2623035;54;20065;-69
2021/09/09 06:36:38;;;;;;;12.63;11.27;;;;;;;16.83;68.40;98501.75;2623176;54;20042;-69
2021/09/09 06:39:07;;;;;;;16.05;11.88;;;;;;;16.96;67.72;98495.31;2623197;54;20033;-68
2021/09/09 06:41:40;;;;;;;13.60;10.18;;;;;;;17.03;67.22;98500.50;2623411;54;20057;-69
2021/09/09 06:44:10;;;;;;;15.02;12.00;;;;;;;17.10;67.57;98498.47;2621621;47;20023;-69
2021/09/09 06:46:39;;;;;;;17.98;11.38;;;;;;;17.08;67.34;98493.38;2622311;54;20034;-68
2021/09/09 06:49:10;;;;;;;17.17;12.70;;;;;;;17.08;67.29;98501.38;2619401;46;20041;-68
2021/09/09 06:51:40;;;;;;;18.80;12.05;;;;;;;17.12;67.38;98496.38;2619665;54;20557;-68
2021/09/09 06:54:10;;;;;;;18.15;14.10;;;;;;;17.17;66.80;98504.47;2622452;39;20429;-68
2021/09/09 06:56:42;;;;;;;16.70;12.30;;;;;;;17.31;66.86;98492.41;2621259;47;20030;-68
2021/09/09 06:59:12;;;;;;;18.05;11.80;;;;;;;17.39;66.28;98499.22;2619590;39;20433;-68
2021/09/09 07:01:42;;;;;;;18.77;11.15;;;;;;;17.49;66.40;98506.56;2618542;47;20033;-68
2021/09/09 07:04:12;;;;;;;19.27;17.17;;;;;;;17.60;65.75;98497.66;2620652;47;20038;-69
2021/09/09 07:06:41;;;;;;;14.77;12.68;;;;;;;17.70;65.57;98496.97;2623202;54;20038;-68
2021/09/09 07:09:11;;;;;;;22.40;16.23;;;;;;;17.77;65.70;98494.97;2623883;54;20038;-68
2021/09/09 07:11:43;;;;;;;23.38;15.85;;;;;;;17.94;64.98;98497.59;2623370;54;20033;-68
2021/09/09 07:14:13;;;;;;;17.45;12.02;;;;;;;18.06;65.01;98485.72;2623372;54;20049;-69
2021/09/09 07:16:43;;;;;;;13.70;11.90;;;;;;;18.24;64.35;98486.47;2621571;54;20034;-68
2021/09/09 07:19:13;;;;;;;15.23;11.73;;;;;;;18.33;63.96;98493.00;2621729;54;20545;-68
2021/09/09 07:21:43;;;;;;;12.75;10.70;;;;;;;18.46;63.97;98497.97;2619884;47;20549;-69
2021/09/09 07:24:12;;;;;;;19.65;10.40;;;;;;;18.66;63.86;98494.69;2619532;47;20158;-69
2021/09/09 07:26:45;;;;;;;16.30;10.05;;;;;;;18.90;63.42;98497.06;2619648;46;20034;-68
2021/09/09 07:29:15;;;;;;;16.77;10.95;;;;;;;19.05;63.27;98510.63;2621339;39;20445;-68
2021/09/09 07:31:47;;;;;;;14.57;8.10;;;;;;;19.28;62.73;98506.81;2621400;39;20374;-69
2021/09/09 07:34:19;;;;;;;12.70;8.93;;;;;;;19.48;63.01;98506.94;2621567;54;20034;-68
2021/09/09 07:36:49;;;;;;;9.40;7.63;;;;;;;19.73;62.37;98506.34;2620969;54;20030;-69
2021/09/09 07:39:19;;;;;;;7.63;6.47;;;;;;;20.00;62.27;98502.72;2621341;39;20383;-69
2021/09/09 07:41:52;;;;;;;7.88;6.50;;;;;;;20.18;61.18;98517.56;2620726;54;20548;-71
2021/09/09 07:44:24;;;;;;;7.47;6.10;;;;;;;20.30;61.21;98520.84;2620810;54;20037;-69
2021/09/09 07:46:54;;;;;;;7.60;6.05;;;;;;;20.49;60.22;98515.81;2620085;54;20030;-68
2021/09/09 07:49:28;;;;;;;6.45;5.78;;;;;;;20.71;59.77;98521.81;2619841;47;20069;-68
2021/09/09 07:51:58;;;;;;;8.65;6.63;;;;;;;20.86;59.61;98525.56;2620080;54;20027;-68
2021/09/09 07:54:29;;;;;;;6.65;6.05;;;;;;;21.12;59.29;98518.38;2620430;54;20035;-69
2021/09/09 07:57:07;;;;;;;7.57;6.85;;;;;;;21.40;58.56;98517.06;2621328;31;20517;-70
2021/09/09 07:59:37;;;;;;;8.18;6.10;;;;;;;21.59;58.16;98518.09;2622018;54;20041;-69
2021/09/09 08:02:07;;;;;;;10.35;6.15;;;;;;;21.73;58.26;98519.16;2621876;54;20043;-69
2021/09/09 08:04:37;;;;;;;6.60;6.00;;;;;;;21.92;57.57;98519.41;2621427;54;20041;-69
2021/09/09 08:07:10;;;;;;;7.88;6.28;;;;;;;22.09;57.38;98520.97;2619991;54;20057;-71
2021/09/09 08:09:43;;;;;;;9.13;5.97;;;;;;;22.29;57.01;98530.84;2619452;47;20023;-71
2021/09/09 08:12:20;;;;;;;7.10;6.35;;;;;;;22.48;56.46;98521.88;2619623;47;20037;-68
2021/09/09 08:14:51;;;;;;;8.57;6.72;;;;;;;22.57;56.13;98526.69;2619917;54;20034;-68
2021/09/09 08:17:34;;;;;;;9.23;6.05;;;;;;;22.57;56.25;98530.19;2620094;54;20042;-70
2021/09/09 08:20:16;;;;;;;6.97;5.80;;;;;;;22.63;56.26;98526.41;2620037;54;20049;-72
2021/09/09 08:22:50;;;;;;;7.65;6.03;;;;;;;22.71;56.07;98533.09;2619768;47;20034;-68
2021/09/09 08:25:27;;;;;;;6.47;5.85;;;;;;;22.78;55.72;98522.81;2619632;54;20030;-70
2021/09/09 08:28:00;;;;;;;6.40;5.80;;;;;;;22.86;55.74;98534.88;2618765;54;20037;-69
2021/09/09 08:30:30;;;;;;;12.98;6.40;;;;;;;22.85;55.74;98527.88;2619985;54;20054;-68
2021/09/09 08:33:00;;;;;;;7.95;6.15;;;;;;;22.94;55.31;98539.72;2619057;47;20542;-69
2021/09/09 08:35:35;;;;;;;6.95;5.65;;;;;;;23.03;55.49;98534.56;2618407;47;20026;-69
2021/09/09 08:38:05;;;;;;;6.18;5.57;;;;;;;23.12;55.43;98546.34;2619415;54;20530;-70
2021/09/09 08:40:42;;;;;;;7.05;5.60;;;;;;;23.13;54.95;98537.97;2618868;47;20173;-70
2021/09/09 08:43:19;;;;;;;9.05;5.72;;;;;;;23.12;55.02;98540.97;2620106;54;20092;-68
2021/09/09 08:45:54;;;;;;;;;;;;;;;23.17;55.53;98549.00;2620251;54;20037;-72
2021/09/09 08:48:30;;;;;;;11.30;6.57;;;;;;;23.10;55.33;98543.09;2620479;54;19938;-71
2021/09/09 08:51:01;;;;;;;12.25;6.00;;;;;;;22.98;55.96;98554.25;2619378;54;20029;-71
2021/09/09 08:53:32;;;;;;;7.47;6.00;;;;;;;22.84;56.35;98550.53;2619545;54;20026;-70
2021/09/09 08:56:03;;;;;;;8.20;5.85;;;;;;;22.92;55.96;98544.59;2619943;54;20042;-71
2021/09/09 08:58:36;;;;;;;8.02;6.00;;;;;;;23.12;55.84;98547.16;2620105;39;20656;-72
2021/09/09 09:01:07;;;;;;;6.47;5.82;;;;;;;23.14;56.27;98544.16;2620208;46;20053;-70
2021/09/09 09:03:46;;;;;;;7.28;5.75;;;;;;;23.22;56.16;98547.06;2622197;54;20038;-71
2021/09/09 09:06:39;;;;;;;7.38;6.00;;;;;;;23.22;56.09;98544.38;2623134;39;20394;-70
2021/09/09 09:09:12;;;;;;;10.15;5.45;;;;;;;23.30;55.99;98544.84;2620273;54;20033;-70
2021/09/09 09:11:44;;;;;;;10.90;6.53;;;;;;;23.51;55.92;98545.50;2620078;54;20034;-71
2021/09/09 09:14:18;;;;;;;20.58;17.70;;;;;;;23.73;55.65;98541.28;2619563;47;20557;-71
2021/09/09 09:16:50;;;;;;;8.57;6.53;;;;;;;23.89;54.72;98533.81;2619473;54;20058;-70
2021/09/09 09:19:22;;;;;;;6.63;5.97;;;;;;;23.89;55.24;98543.81;2619565;39;20429;-70
2021/09/09 09:21:56;;;;;;;9.65;6.13;;;;;;;23.96;54.73;98539.69;2619262;54;20034;-69
2021/09/09 09:24:32;;;;;;;9.95;6.57;;;;;;;24.04;54.75;98537.44;2618591;46;20037;-71
2021/09/09 09:27:14;;;;;;;10.45;5.57;;;;;;;24.14;54.89;98540.03;2618878;54;20035;-71
2021/09/09 09:30:07;;;;;;;11.13;6.03;;;;;;;24.13;54.16;98551.94;2621046;39;20086;-70
2021/09/09 09:32:37;;;;;;;10.85;6.78;;;;;;;24.07;54.13;98545.78;2619526;54;20038;-70
2021/09/09 09:35:12;;;;;;;7.82;6.40;;;;;;;24.07;54.34;98550.38;2618816;54;20037;-70
2021/09/09 09:37:56;;;;;;;7.55;5.97;;;;;;;24.07;54.34;98561.19;2618366;54;20034;-70
2021/09/09 09:40:29;;;;;;;9.65;6.40;;;;;;;24.11;53.88;98564.91;2619145;54;20030;-69
2021/09/09 09:43:00;;;;;;;6.18;5.47;;;;;;;24.17;53.97;98558.38;2619192;54;20674;-70
2021/09/09 09:45:32;;;;;;;13.10;6.38;;;;;;;24.26;53.57;98561.25;2618358;54;20050;-69
2021/09/09 09:48:02;;;;;;;9.23;6.00;;;;;;;24.28;54.13;98559.03;2620790;47;20589;-71
2021/09/09 09:50:41;;;;;;;10.07;6.80;;;;;;;24.28;53.75;98567.94;2620195;47;20283;-70
2021/09/09 09:53:18;;;;;;;8.05;6.28;;;;;;;24.28;53.64;98561.75;2619575;54;20030;-70
2021/09/09 09:55:49;;;;;;;7.35;6.20;;;;;;;24.19;53.60;98565.09;2620978;54;20085;-69
2021/09/09 09:58:20;;;;;;;6.68;5.97;;;;;;;24.04;54.39;98570.63;2622486;54;20045;-70
2021/09/09 10:00:53;;;;;;;9.10;5.82;;;;;;;23.99;54.40;98570.69;2623562;39;20421;-71
2021/09/09 10:03:23;;;;;;;;;;;;;;;23.93;54.59;98558.34;2622955;54;20069;-70
2021/09/09 10:05:54;;;;;;;8.15;6.53;;;;;;;23.98;54.12;98563.69;2622917;54;19947;-69
2021/09/09 10:08:24;;;;;;;8.50;6.03;;;;;;;24.01;54.42;98557.72;2623375;54;20031;-69
2021/09/09 10:10:54;;;;;;;9.20;6.00;;;;;;;24.01;54.44;98560.44;2622802;54;20035;-70
2021/09/09 10:13:24;;;;;;;8.05;6.05;;;;;;;24.10;54.31;98566.00;2623020;54;20042;-70
2021/09/09 10:15:56;;;;;;;11.55;6.53;;;;;;;24.19;54.62;98570.47;2622102;54;20576;-69
2021/09/09 10:18:26;;;;;;;11.83;7.17;;;;;;;24.21;54.19;98567.50;2619419;54;20069;-68
2021/09/09 10:20:56;;;;;;;6.68;6.07;;;;;;;24.17;54.47;98566.47;2619031;54;20311;-68
2021/09/09 10:23:31;;;;;;;7.95;6.38;;;;;;;24.12;54.73;98563.81;2619209;54;20041;-71
2021/09/09 10:26:02;;;;;;;10.48;6.10;;;;;;;24.07;54.66;98561.19;2618355;47;20030;-69
2021/09/09 10:28:45;;;;;;;10.68;6.63;;;;;;;24.10;54.85;98566.00;2619111;54;20133;-70
2021/09/09 10:31:21;;;;;;;11.57;6.60;;;;;;;24.26;55.00;98556.66;2619393;39;20433;-70
2021/09/09 10:33:54;;;;;;;10.32;6.40;;;;;;;24.55;54.12;98556.59;2619716;54;20026;-68
2021/09/09 10:36:44;;;;;;;11.25;6.95;;;;;;;24.73;54.16;98552.28;2618978;39;20429;-69
2021/09/09 10:39:20;;;;;;;7.72;6.80;;;;;;;24.86;53.98;98550.75;2621617;39;20445;-68
2021/09/09 10:41:51;;;;;;;11.02;6.55;;;;;;;24.93;53.06;98559.31;2618372;47;20049;-69
2021/09/09 10:44:34;;;;;;;10.48;6.63;;;;;;;24.87;53.09;98552.38;2620010;54;20031;-68
2021/09/09 10:47:20;;;;;;;10.50;6.97;;;;;;;24.93;53.13;98551.19;2619686;54;20033;-68
2021/09/09 10:50:03;;;;;;;11.80;7.53;;;;;;;24.81;53.43;98557.03;2620263;54;20031;-68
2021/09/09 10:52:32;;;;;;;7.80;6.38;;;;;;;24.73;53.82;98551.47;2620416;54;20046;-69
2021/09/09 10:55:05;;;;;;;10.05;6.35;;;;;;;24.59;54.23;98548.72;2620376;54;20027;-69
2021/09/09 10:57:36;;;;;;;10.57;6.85;;;;;;;24.52;54.36;98556.34;2619913;54;20121;-69
2021/09/09 11:00:16;;;;;;;8.95;6.80;;;;;;;24.37;54.82;98557.31;2618280;47;20026;-69
2021/09/09 11:02:49;;;;;;;10.90;6.65;;;;;;;24.28;55.12;98545.53;2617141;54;20045;-70
2021/09/09 11:05:20;;;;;;;8.20;6.35;;;;;;;24.36;55.76;98551.09;2618133;54;20030;-69
2021/09/09 11:07:51;;;;;;;7.82;6.63;;;;;;;24.36;55.58;98550.31;2617315;54;20042;-69
2021/09/09 11:10:21;;;;;;;9.60;6.82;;;;;;;24.41;55.18;98550.25;2617510;54;20037;-68
2021/09/09 11:13:01;;;;;;;8.25;6.82;;;;;;;24.43;55.17;98558.91;2620046;54;20081;-68
2021/09/09 11:15:35;;;;;;;8.57;6.60;;;;;;;24.41;55.53;98561.91;2619780;54;20042;-69
2021/09/09 11:18:08;;;;;;;7.85;6.95;;;;;;;24.40;55.40;98559.47;2620072;47;20050;-69
2021/09/09 11:20:38;;;;;;;7.60;5.97;;;;;;;24.40;55.47;98554.88;2618340;47;20592;-63
2021/09/09 23:23:22;;;;;;;8.85;7.95;;;;;;;20.28;63.32;98673.28;2622944;46;20038;-71
2021/09/09 23:25:51;;;;;;;8.63;7.57;;;;;;;20.29;63.82;98667.66;2621630;47;20584;-71
2021/09/09 23:28:21;;;;;;;10.70;7.90;;;;;;;20.32;63.30;98670.88;2621818;54;20038;-71
2021/09/09 23:30:51;;;;;;;8.18;7.28;;;;;;;20.31;63.56;98672.75;2621893;54;20038;-71
2021/09/09 23:33:21;;;;;;;8.75;7.55;;;;;;;20.37;63.89;98673.59;2621863;54;20031;-71
2021/09/09 23:35:50;;;;;;;8.73;7.80;;;;;;;20.37;63.67;98671.75;2621435;54;20066;-71
2021/09/09 23:38:23;;;;;;;8.30;7.50;;;;;;;20.39;63.94;98668.78;2621282;54;20026;-71
2021/09/09 23:40:52;;;;;;;9.05;8.00;;;;;;;20.37;63.31;98670.91;2621951;54;20022;-72
2021/09/09 23:43:22;;;;;;;8.57;7.53;;;;;;;20.31;63.74;98667.41;2620760;47;20573;-71